Council Hill, Oklahoma
Current Conditions -  °F | °C
As of 4:19 PM on Sunday 21 Dec 2014 (Local Time) from KMKO Reporting Station
Overcast Overcast  
Wind Chill: 45°   Ceiling: 3000
Heat Index: 49°   Visibility: 10mi
Dew Point: 40°   Wind: 8mph
Humidity: 71%   Direction: 160°SSE
Pressure: 29.88"   Gusts: NA
Location:  35.56°N, 95.65°W
Report Text: KMKO 212219Z AUTO 16007KT 10SM OVC030 09/04 A2988 RMK AO2 T00940044
Loading
Personal Weather Stations






























Interactive Weather Map New forecast layout! Learn more

10-Day Weather Forecast

Advertisements
Track Severe Weather on mobile